Time;durP1;ratioP1;P1;durP2;ratioP2;P2;SDS_P1;SDS_P2;PMS_P1;PMS_P2;Temp;Humidity;BMP_temperature;BMP_pressure;BME280_temperature;BME280_humidity;BME280_pressure;Samples;Min_cycle;Max_cycle;Signal;HPM_P1;HPM_P2
2022/01/02 00:02:25;;;;;;;9.80;8.53;;;10.60;98.10;;;10.62;69.73;95722.41;4987352;28;20524;-59
2022/01/02 00:04:53;;;;;;;11.53;9.30;;;10.60;98.10;;;10.65;69.63;95719.53;4989861;28;20467;-54
2022/01/02 00:07:20;;;;;;;9.37;7.40;;;10.60;98.10;;;10.68;69.37;95721.94;4990318;28;20473;-58
2022/01/02 00:09:51;;;;;;;9.57;7.90;;;10.70;98.00;;;10.68;69.31;95729.81;4988330;28;20833;-56
2022/01/02 00:12:21;;;;;;;9.40;8.30;;;10.70;98.00;;;10.69;69.54;95734.13;4990165;28;20450;-54
2022/01/02 00:14:49;;;;;;;8.13;7.23;;;10.70;98.00;;;10.71;69.35;95732.22;4987201;28;20478;-53
2022/01/02 00:17:22;;;;;;;12.10;8.10;;;10.70;98.00;;;10.73;69.34;95735.56;4989677;28;21034;-57
2022/01/02 00:19:53;;;;;;;11.53;8.80;;;10.70;97.90;;;10.75;69.64;95738.91;4989586;28;20688;-54
2022/01/02 00:22:24;;;;;;;9.70;8.20;;;10.70;97.90;;;10.77;69.41;95737.00;4991418;28;20458;-57
2022/01/02 00:24:53;;;;;;;17.33;8.97;;;10.80;98.00;;;10.81;69.54;95734.13;4988033;28;21024;-54
2022/01/02 00:27:20;;;;;;;13.10;9.90;;;10.80;98.10;;;10.79;69.44;95718.47;4983564;28;20824;-59
2022/01/02 00:29:47;;;;;;;16.73;9.60;;;10.80;98.00;;;10.85;69.63;95727.69;4987558;28;20474;-55
2022/01/02 00:32:15;;;;;;;10.97;8.47;;;10.80;98.10;;;10.87;69.30;95736.28;4989691;28;20454;-54
2022/01/02 00:34:42;;;;;;;10.83;8.33;;;10.90;98.00;;;10.88;69.75;95730.06;4989498;28;20573;-54
2022/01/02 00:37:09;;;;;;;10.53;7.60;;;10.90;98.10;;;10.88;69.46;95727.44;4990556;28;20510;-55
2022/01/02 00:39:38;;;;;;;10.07;8.73;;;10.90;98.00;;;10.89;69.61;95729.09;4990602;28;20536;-55
2022/01/02 00:42:10;;;;;;;14.00;10.20;;;10.90;98.00;;;10.88;69.60;95723.00;4989934;28;20474;-56
2022/01/02 00:44:53;;;;;;;9.13;8.23;;;10.80;98.00;;;10.88;69.48;95728.25;4989813;28;20505;-59
2022/01/02 00:47:26;;;;;;;10.03;8.20;;;10.90;98.00;;;10.89;69.47;95727.31;4989725;28;20491;-55
2022/01/02 00:50:06;;;;;;;10.50;7.60;;;10.90;98.10;;;10.91;69.90;95724.56;4988281;28;20557;-58
2022/01/02 00:52:36;;;;;;;12.17;10.10;;;10.90;98.20;;;10.91;69.46;95722.75;4987284;28;20713;-54
2022/01/02 00:55:05;;;;;;;11.30;8.73;;;10.90;98.10;;;10.92;69.30;95724.44;4987215;28;20466;-59
2022/01/02 00:57:36;;;;;;;10.77;9.00;;;10.90;98.00;;;10.93;69.50;95730.53;4988402;28;20497;-58
2022/01/02 01:00:11;;;;;;;8.13;7.43;;;10.90;98.00;;;10.97;69.49;95728.50;4985335;28;20496;-60
2022/01/02 01:02:44;;;;;;;14.03;8.87;;;10.90;98.10;;;10.99;69.27;95734.50;4986324;28;20576;-56
2022/01/02 01:05:11;;;;;;;9.40;8.17;;;10.90;97.90;;;10.99;69.15;95734.50;4984091;28;20834;-54
2022/01/02 01:07:39;;;;;;;10.73;8.43;;;11.00;97.80;;;10.99;69.17;95735.31;4989263;28;20997;-54
2022/01/02 01:10:11;;;;;;;9.70;7.00;;;11.00;97.80;;;11.01;69.05;95733.38;4983768;28;20983;-58
2022/01/02 01:12:39;;;;;;;9.33;7.60;;;11.00;97.60;;;11.02;68.99;95740.34;4986991;28;20457;-55
2022/01/02 01:15:08;;;;;;;11.17;7.90;;;11.00;97.60;;;11.02;69.18;95747.41;4987397;28;20474;-60
2022/01/02 01:17:37;;;;;;;8.53;7.63;;;11.00;97.60;;;11.05;68.98;95744.53;4986790;28;20568;-59
2022/01/02 01:20:06;;;;;;;13.40;7.60;;;11.00;97.60;;;11.05;68.88;95744.53;4989141;28;20506;-54
2022/01/02 01:22:34;;;;;;;10.47;7.40;;;11.00;97.60;;;11.06;69.09;95747.03;4985376;28;20454;-55
2022/01/02 01:25:03;;;;;;;11.20;8.17;;;11.00;98.00;;;11.07;69.12;95737.34;4988290;28;20864;-61
2022/01/02 01:27:32;;;;;;;11.97;8.73;;;11.00;97.60;;;11.08;69.09;95742.50;4986627;28;20947;-54
2022/01/02 01:30:00;;;;;;;9.70;7.50;;;11.10;97.70;;;11.10;69.09;95740.56;4988524;28;20465;-58
2022/01/02 01:32:27;;;;;;;11.00;7.87;;;11.10;97.70;;;11.10;68.93;95743.19;4988957;28;20455;-54
2022/01/02 01:34:55;;;;;;;9.40;7.87;;;11.10;97.70;;;11.12;69.06;95737.81;4989390;28;20482;-55
2022/01/02 01:37:22;;;;;;;8.70;7.80;;;11.10;97.70;;;11.11;69.16;95734.34;4988980;28;20465;-59
2022/01/02 01:39:49;;;;;;;8.37;7.60;;;11.10;97.70;;;11.11;68.97;95744.88;4989097;28;21081;-56
2022/01/02 01:42:27;;;;;;;8.83;7.93;;;11.10;97.70;;;11.12;68.81;95740.44;4990125;28;20538;-56
2022/01/02 01:45:28;;;;;;;9.87;8.57;;;11.10;97.70;;;11.11;69.08;95744.88;4986977;28;20477;-59
2022/01/02 01:47:54;;;;;;;10.17;7.90;;;11.10;97.70;;;11.11;68.83;95734.34;4988807;28;20454;-55
2022/01/02 01:50:23;;;;;;;9.70;8.70;;;11.10;97.70;;;11.10;69.20;95743.19;4986748;28;20473;-59
2022/01/02 01:52:51;;;;;;;9.17;8.20;;;11.10;98.00;;;11.10;69.07;95739.72;4985769;28;20963;-60
2022/01/02 01:55:18;;;;;;;11.20;9.60;;;11.10;97.70;;;11.11;69.14;95739.63;4988327;28;20470;-57
2022/01/02 01:57:46;;;;;;;9.60;8.10;;;11.10;97.70;;;11.11;69.64;95744.88;4986858;28;20613;-59
2022/01/02 02:00:16;;;;;;;10.83;8.77;;;11.10;97.80;;;11.12;69.24;95741.28;4988214;28;20481;-54
2022/01/02 02:02:43;;;;;;;11.77;8.50;;;11.10;97.90;;;11.13;69.27;95737.69;4984921;28;20454;-60
2022/01/02 02:05:12;;;;;;;10.23;8.87;;;11.10;97.80;;;11.13;69.12;95740.31;4986688;28;20866;-55
2022/01/02 02:07:40;;;;;;;8.50;7.70;;;11.10;97.70;;;11.15;69.09;95739.38;4989197;28;20458;-58
2022/01/02 02:10:13;;;;;;;9.43;6.90;;;11.10;97.70;;;11.12;68.79;95733.41;4986969;28;20475;-59
2022/01/02 02:12:41;;;;;;;8.60;7.40;;;11.10;97.60;;;11.10;68.79;95731.84;4987251;28;20553;-54
2022/01/02 02:15:10;;;;;;;12.03;8.47;;;11.10;97.50;;;11.09;68.82;95736.28;4986840;28;20482;-54
2022/01/02 02:17:37;;;;;;;8.63;7.73;;;11.00;97.40;;;11.08;68.71;95734.59;4985855;28;20461;-58
2022/01/02 02:20:16;;;;;;;9.57;7.70;;;11.10;97.50;;;11.08;68.54;95728.50;4988548;28;20504;-54
2022/01/02 02:22:45;;;;;;;12.37;7.90;;;11.10;97.40;;;11.06;68.66;95728.63;4990392;28;20450;-59
2022/01/02 02:25:13;;;;;;;11.47;7.50;;;11.10;97.50;;;11.08;68.83;95729.31;4990721;28;21198;-60
2022/01/02 02:27:41;;;;;;;9.33;7.40;;;11.10;97.60;;;11.09;68.55;95731.00;4992665;28;20454;-59
2022/01/02 02:30:09;;;;;;;8.27;7.00;;;11.10;97.50;;;11.10;68.67;95727.41;4991600;28;20474;-54
2022/01/02 02:32:36;;;;;;;7.70;7.00;;;11.10;97.40;;;11.12;68.60;95732.53;4993089;28;20978;-55
2022/01/02 02:35:05;;;;;;;8.00;7.27;;;11.10;97.40;;;11.13;68.74;95736.84;4991421;28;20478;-58
2022/01/02 02:37:33;;;;;;;7.60;6.60;;;11.10;97.40;;;11.12;68.58;95730.75;4989381;28;20450;-55
2022/01/02 02:40:02;;;;;;;7.47;6.77;;;11.10;97.30;;;11.13;68.43;95736.84;4989593;28;20521;-54
2022/01/02 02:42:37;;;;;;;7.83;7.03;;;11.10;97.30;;;11.13;68.56;95737.69;4991059;28;20455;-59
2022/01/02 02:50:35;;;;;;;10.47;8.73;;;11.10;97.20;;;11.13;68.52;95736.84;4989164;28;20824;-56
2022/01/02 02:53:04;;;;;;;16.40;8.20;;;11.10;97.30;;;11.13;68.49;95744.75;4990165;28;20993;-55
2022/01/02 02:55:41;;;;;;;8.60;7.40;;;11.10;97.30;;;11.14;68.47;95738.53;4989993;28;20470;-60
2022/01/02 02:58:37;;;;;;;7.73;7.03;;;11.10;97.30;;;11.16;68.27;95746.31;4986932;28;20622;-60
2022/01/02 03:00:56;;;;;;;8.77;7.87;;;11.10;97.30;;;11.15;68.25;95750.72;4989862;28;20470;-60
2022/01/02 03:03:23;;;;;;;9.60;7.10;;;11.10;97.10;;;11.12;68.61;95751.81;4984046;28;20453;-56
2022/01/02 03:05:50;;;;;;;9.33;7.30;;;11.10;97.10;;;11.10;68.35;95743.19;4986873;28;20483;-56
2022/01/02 03:08:19;;;;;;;8.43;7.10;;;11.10;97.10;;;11.10;68.48;95748.47;4989315;28;20661;-61
2022/01/02 03:10:46;;;;;;;6.73;6.07;;;11.10;97.20;;;11.12;68.40;95751.81;4988130;28;20499;-55
2022/01/02 03:13:14;;;;;;;7.37;6.70;;;11.10;97.20;;;11.11;68.50;95755.41;4989381;28;20447;-60
2022/01/02 03:15:41;;;;;;;17.03;7.50;;;11.10;97.20;;;11.13;68.42;95756.13;4989080;28;20485;-59
2022/01/02 03:18:08;;;;;;;8.57;7.03;;;11.10;97.50;;;11.13;68.46;95756.13;4990839;28;20844;-59
2022/01/02 03:20:35;;;;;;;11.50;8.23;;;11.10;97.20;;;11.13;68.37;95756.13;4989169;28;20478;-59
2022/01/02 03:23:03;;;;;;;8.50;7.57;;;11.10;97.30;;;11.15;68.46;95755.16;4991062;28;20455;-53
2022/01/02 03:25:31;;;;;;;12.23;8.10;;;11.10;97.20;;;11.15;68.54;95753.34;4990300;28;20482;-60
2022/01/02 03:27:59;;;;;;;10.83;8.10;;;11.10;97.30;;;11.17;68.74;95750.59;4990789;28;20457;-56
2022/01/02 03:30:26;;;;;;;8.80;7.67;;;11.10;97.30;;;11.17;68.55;95748.84;4990348;28;20857;-56
2022/01/02 03:32:53;;;;;;;7.87;7.17;;;11.10;97.30;;;11.17;68.54;95759.38;4990737;28;20480;-52
2022/01/02 03:35:20;;;;;;;9.43;7.73;;;11.10;97.30;;;11.17;68.41;95751.47;4990594;28;20493;-55
2022/01/02 03:37:48;;;;;;;8.77;7.20;;;11.10;97.20;;;11.16;68.63;95754.22;4990026;28;20463;-53
2022/01/02 03:40:15;;;;;;;9.80;8.50;;;11.10;97.30;;;11.16;68.85;95757.69;4989652;28;20718;-59
2022/01/02 03:42:44;;;;;;;10.60;8.07;;;11.10;97.30;;;11.17;68.70;95756.72;4989161;28;20459;-59
2022/01/02 03:45:11;;;;;;;9.20;7.90;;;11.20;97.50;;;11.17;68.58;95753.25;4990883;28;20477;-54
2022/01/02 03:47:38;;;;;;;10.97;7.77;;;11.10;97.30;;;11.17;68.37;95753.25;4988900;28;20451;-60
2022/01/02 03:50:06;;;;;;;10.90;7.57;;;11.20;97.40;;;11.17;68.66;95750.59;4990707;28;20474;-60
2022/01/02 03:52:34;;;;;;;9.93;7.97;;;11.10;97.30;;;11.17;68.58;95758.50;4988411;28;20906;-53
2022/01/02 03:55:01;;;;;;;7.20;6.50;;;11.10;97.30;;;11.16;68.60;95762.13;4989889;28;20474;-55
2022/01/02 03:57:28;;;;;;;6.83;6.13;;;11.10;97.30;;;11.15;68.62;95749.91;4989742;28;20971;-60
2022/01/02 03:59:57;;;;;;;12.60;7.80;;;11.10;97.30;;;11.15;68.57;95760.44;4988386;28;20513;-61
2022/01/02 04:02:24;;;;;;;8.57;7.10;;;11.10;97.30;;;11.13;68.58;95766.66;4990186;28;20458;-61
2022/01/02 04:04:51;;;;;;;8.53;7.70;;;11.10;97.30;;;11.13;68.75;95764.00;4988141;28;20474;-53
2022/01/02 04:07:19;;;;;;;8.70;7.20;;;11.10;97.40;;;11.11;68.59;95763.31;4989464;28;20513;-57
2022/01/02 04:09:46;;;;;;;7.70;6.80;;;11.10;97.40;;;11.11;68.70;95763.31;4989508;28;21018;-59
2022/01/02 04:12:13;;;;;;;8.97;6.53;;;11.10;97.40;;;11.11;68.86;95768.56;4989731;28;20989;-61
2022/01/02 04:14:40;;;;;;;8.70;7.03;;;11.10;97.40;;;11.11;68.51;95768.56;4989407;28;20473;-60
2022/01/02 04:17:09;;;;;;;10.57;7.23;;;11.10;97.30;;;11.10;68.62;95779.22;4989652;28;20442;-54
2022/01/02 04:19:36;;;;;;;9.47;7.33;;;11.10;97.30;;;11.09;68.40;95781.03;4987056;28;20560;-53
2022/01/02 04:22:04;;;;;;;7.60;6.90;;;11.10;97.30;;;11.09;68.60;95783.66;4989678;28;20939;-54
2022/01/02 04:24:31;;;;;;;8.07;7.07;;;11.10;97.40;;;11.08;68.62;95786.41;4991982;28;20451;-54
2022/01/02 04:26:58;;;;;;;8.30;7.50;;;11.10;97.40;;;11.06;68.65;95783.91;4990286;28;20871;-60
2022/01/02 04:29:26;;;;;;;7.47;6.77;;;11.10;97.40;;;11.04;68.85;95790.25;4986633;28;20451;-56
2022/01/02 04:31:53;;;;;;;10.03;6.77;;;11.00;97.50;;;11.04;68.87;95782.34;4989028;28;21036;-55
2022/01/02 04:34:22;;;;;;;7.10;6.40;;;11.00;97.50;;;11.05;68.79;95784.03;4986749;28;20463;-57
2022/01/02 04:36:49;;;;;;;7.57;6.77;;;11.00;97.50;;;11.03;68.72;95778.88;4984105;28;20447;-61
2022/01/02 04:39:16;;;;;;;8.47;7.10;;;11.00;97.60;;;11.03;68.70;95775.38;4990405;28;21033;-60
2022/01/02 04:41:44;;;;;;;11.90;7.00;;;11.00;97.50;;;11.02;69.03;95776.38;4989881;28;20566;-61
2022/01/02 04:44:11;;;;;;;8.10;7.20;;;11.00;97.60;;;11.00;68.86;95781.75;4988622;28;20446;-54
2022/01/02 04:46:38;;;;;;;8.33;7.40;;;11.00;98.00;;;10.99;68.92;95773.97;4988848;28;20486;-60
2022/01/02 04:49:05;;;;;;;7.57;6.63;;;11.00;97.60;;;10.96;68.96;95779.47;4989681;28;20879;-60
2022/01/02 04:51:34;;;;;;;7.33;6.63;;;11.00;97.60;;;10.94;69.08;95790.13;4989703;28;20825;-60
2022/01/02 04:54:01;;;;;;;8.83;6.90;;;10.90;97.60;;;10.92;69.27;95792.00;4989576;28;20864;-60
2022/01/02 04:56:28;;;;;;;10.67;7.40;;;10.90;97.60;;;10.90;69.08;95799.19;4988930;28;20812;-54
2022/01/02 04:58:56;;;;;;;8.37;7.10;;;10.90;97.60;;;10.89;69.14;95789.63;4987754;28;20494;-55
2022/01/02 05:01:23;;;;;;;9.80;7.17;;;10.90;97.60;;;10.88;69.50;95785.34;4988950;28;20856;-63
2022/01/02 05:03:50;;;;;;;8.33;7.50;;;10.90;97.70;;;10.86;69.31;95782.81;4987649;28;20450;-57
2022/01/02 05:06:18;;;;;;;7.17;6.00;;;10.80;97.70;;;10.86;69.23;95781.97;4988032;28;20474;-61
2022/01/02 05:08:46;;;;;;;7.13;6.43;;;10.80;97.60;;;10.84;69.44;95784.72;4987786;28;20465;-53
2022/01/02 05:11:14;;;;;;;7.60;6.43;;;10.80;97.70;;;10.83;69.41;95783.06;4986861;28;20860;-56
2022/01/02 05:13:41;;;;;;;6.40;5.80;;;10.80;97.70;;;10.83;69.35;95776.94;4987274;28;20474;-53
2022/01/02 05:16:09;;;;;;;7.20;6.50;;;10.80;97.70;;;10.81;69.07;95776.22;4986592;28;21154;-61
2022/01/02 05:18:36;;;;;;;7.73;5.90;;;10.80;97.50;;;10.81;69.25;95784.13;4988025;28;20454;-61
2022/01/02 05:21:03;;;;;;;9.17;6.90;;;10.80;97.70;;;10.78;69.41;95785.19;4986258;28;20992;-59
2022/01/02 05:23:30;;;;;;;7.20;6.50;;;10.80;97.80;;;10.78;69.50;95785.19;4983497;28;20491;-61
2022/01/02 05:25:59;;;;;;;7.80;6.57;;;10.80;97.80;;;10.75;69.30;95788.91;4989469;28;20820;-54
2022/01/02 05:28:27;;;;;;;8.77;6.03;;;10.80;97.70;;;10.74;69.56;95791.66;4986544;28;20994;-60
2022/01/02 05:30:54;;;;;;;6.87;5.43;;;10.70;97.70;;;10.72;69.50;95791.78;4987066;28;20505;-53
2022/01/02 05:33:21;;;;;;;8.03;6.73;;;10.70;97.80;;;10.71;69.45;95791.91;4987930;28;20454;-61
2022/01/02 05:35:48;;;;;;;6.83;6.23;;;10.70;97.80;;;10.69;69.42;95794.66;4988368;28;20501;-55
2022/01/02 05:38:19;;;;;;;8.50;6.00;;;10.70;97.80;;;10.68;69.43;95800.84;4987977;28;20470;-61
2022/01/02 05:40:47;;;;;;;6.00;5.50;;;10.70;97.80;;;10.67;69.57;95793.91;4986570;28;20494;-61
2022/01/02 05:43:16;;;;;;;6.60;5.97;;;10.70;97.90;;;10.66;69.49;95797.50;4987276;28;20462;-60
2022/01/02 05:45:43;;;;;;;8.17;6.30;;;10.70;97.90;;;10.64;69.54;95803.84;4986872;28;20474;-61
2022/01/02 05:48:10;;;;;;;5.60;5.10;;;10.70;97.80;;;10.60;69.49;95805.88;4985762;28;21033;-60
2022/01/02 05:50:38;;;;;;;6.27;5.67;;;10.60;97.80;;;10.58;69.55;95810.38;4985183;28;20502;-61
2022/01/02 05:53:05;;;;;;;5.87;5.37;;;10.60;97.90;;;10.57;69.44;95808.75;4986864;28;20451;-58
2022/01/02 05:55:32;;;;;;;6.20;5.60;;;10.60;97.90;;;10.56;69.55;95809.69;4987786;28;20486;-56
2022/01/02 05:57:59;;;;;;;5.90;5.30;;;10.60;98.00;;;10.55;69.81;95806.22;4992150;28;20454;-61
2022/01/02 06:00:28;;;;;;;4.90;4.50;;;10.60;98.10;;;10.55;69.73;95806.22;4989947;28;20730;-62
2022/01/02 06:02:55;;;;;;;7.30;5.73;;;10.60;98.10;;;10.55;69.92;95818.50;4990057;28;20462;-53
2022/01/02 06:05:22;;;;;;;7.13;5.70;;;10.50;98.10;;;10.57;69.75;95814.00;4990914;28;20478;-55
2022/01/02 06:07:50;;;;;;;8.00;5.50;;;10.60;98.10;;;10.58;69.68;95813.88;4993911;28;20459;-56
2022/01/02 06:10:17;;;;;;;6.50;5.40;;;10.60;98.20;;;10.59;69.74;95815.53;4991082;28;20593;-59
2022/01/02 06:12:45;;;;;;;5.93;5.43;;;10.60;98.10;;;10.60;69.77;95819.03;4989992;28;20451;-52
2022/01/02 06:15:12;;;;;;;9.20;6.50;;;10.60;98.00;;;10.62;69.73;95819.75;4990814;28;20477;-61
2022/01/02 06:17:41;;;;;;;6.13;5.53;;;10.60;98.10;;;10.63;69.44;95824.06;4991704;28;20829;-60
2022/01/02 06:20:09;;;;;;;6.10;5.50;;;10.60;97.90;;;10.65;69.47;95827.41;4987771;28;20489;-62
2022/01/02 06:22:36;;;;;;;6.00;5.50;;;10.60;97.90;;;10.68;69.23;95818.44;4989848;28;20454;-55
2022/01/02 06:25:04;;;;;;;4.60;4.30;;;10.70;98.20;;;10.69;69.08;95828.84;4991356;28;20489;-62
2022/01/02 06:27:31;;;;;;;5.70;5.03;;;10.70;97.80;;;10.73;69.19;95840.81;4989402;28;20461;-62
2022/01/02 06:29:59;;;;;;;6.40;5.60;;;10.70;97.80;;;10.74;69.21;95839.84;4991713;28;20481;-57
2022/01/02 06:32:26;;;;;;;5.40;5.00;;;10.70;97.50;;;10.77;68.86;95837.00;4989913;28;20999;-53
2022/01/02 06:34:55;;;;;;;6.63;5.80;;;10.70;97.50;;;10.84;68.91;95847.88;4988799;28;20466;-55
2022/01/02 06:37:22;;;;;;;5.83;5.20;;;10.80;97.50;;;10.89;68.96;95851.00;4991299;28;20455;-61
2022/01/02 06:39:49;;;;;;;7.03;5.80;;;10.90;97.60;;;10.96;68.79;95848.75;4988561;28;20502;-62
2022/01/02 06:42:16;;;;;;;6.07;5.57;;;10.90;97.60;;;11.11;69.14;95849.38;4986560;28;20830;-55
2022/01/02 06:44:44;;;;;;;5.40;4.70;;;11.10;97.70;;;11.40;68.47;95849.72;4991532;28;20852;-62
2022/01/02 06:47:11;;;;;;;8.03;5.03;;;11.30;97.60;;;11.64;67.83;95854.00;4989865;28;20454;-62
2022/01/02 06:49:38;;;;;;;4.67;4.23;;;11.60;97.20;;;11.77;67.38;95862.63;4991536;28;20524;-57
2022/01/02 06:52:07;;;;;;;5.63;5.00;;;11.80;96.70;;;11.82;66.73;95860.44;4990712;28;20454;-54
2022/01/02 06:54:35;;;;;;;5.90;4.47;;;11.80;96.40;;;11.83;66.84;95856.88;4991740;28;20462;-62
2022/01/02 06:57:02;;;;;;;5.57;5.07;;;11.80;96.30;;;11.82;66.60;95860.44;4990548;28;20477;-56
2022/01/02 06:59:30;;;;;;;6.20;4.90;;;11.80;96.20;;;11.83;66.60;95864.78;4989353;28;20582;-62
2022/01/02 07:01:58;;;;;;;6.50;5.83;;;11.80;96.20;;;11.86;67.07;95863.66;4987607;28;20497;-61
2022/01/02 07:04:25;;;;;;;8.80;6.40;;;11.80;96.10;;;11.88;66.30;95869.63;4989127;28;20891;-61
2022/01/02 07:06:52;;;;;;;5.73;5.07;;;11.80;96.00;;;11.94;66.82;95863.91;4991745;28;20978;-62
2022/01/02 07:09:21;;;;;;;6.60;4.80;;;11.90;96.10;;;12.09;66.59;95868.94;4989607;28;20823;-61
2022/01/02 07:11:48;;;;;;;7.60;6.00;;;12.00;95.80;;;12.26;66.13;95865.75;4989349;28;20447;-54
2022/01/02 07:14:16;;;;;;;6.70;5.80;;;12.20;95.80;;;12.74;65.61;95869.72;4993292;28;20531;-62
2022/01/02 07:16:43;;;;;;;6.90;5.87;;;12.60;95.90;;;13.18;65.02;95875.69;4988536;28;20492;-56
2022/01/02 07:19:10;;;;;;;10.00;6.93;;;13.10;95.40;;;13.47;63.90;95875.03;4991419;28;20451;-64
2022/01/02 07:21:39;;;;;;;8.03;5.33;;;13.40;94.80;;;13.70;63.44;95875.66;4986864;28;21022;-55
2022/01/02 07:24:06;;;;;;;6.03;5.50;;;13.70;94.20;;;14.20;62.47;95885.38;4991247;28;20451;-54
2022/01/02 07:26:35;;;;;;;6.20;5.60;;;14.10;93.80;;;14.97;61.93;95881.09;4991003;28;20478;-55
2022/01/02 07:29:02;;;;;;;6.10;5.27;;;14.90;93.50;;;15.75;60.20;95878.22;4989777;28;20927;-62
2022/01/02 07:31:30;;;;;;;6.43;5.47;;;15.80;92.40;;;16.31;57.83;95881.69;4986794;28;20474;-63
2022/01/02 07:33:57;;;;;;;5.97;5.00;;;16.40;90.50;;;16.43;57.18;95874.31;4990720;28;20472;-62
2022/01/02 07:36:24;;;;;;;5.10;4.70;;;16.60;89.10;;;16.30;56.55;95882.66;4990654;28;20487;-57
2022/01/02 07:38:51;;;;;;;5.87;5.30;;;16.60;86.70;;;16.33;56.45;95881.53;4991156;28;20459;-62
2022/01/02 07:41:19;;;;;;;4.90;4.50;;;16.60;85.90;;;16.76;56.43;95882.59;4989570;28;20624;-55
2022/01/02 07:43:47;;;;;;;4.50;4.10;;;16.90;86.60;;;17.18;54.45;95879.28;4989195;28;20454;-53
2022/01/02 07:46:15;;;;;;;5.47;4.47;;;17.30;83.30;;;17.58;54.26;95876.19;4989470;28;20490;-62
2022/01/02 07:48:42;;;;;;;7.27;4.60;;;17.70;83.70;;;18.12;52.83;95887.41;4979825;28;20974;-56
2022/01/02 07:51:10;;;;;;;4.17;3.97;;;18.20;81.50;;;18.72;52.67;95874.91;4989508;28;20500;-54
2022/01/02 07:53:37;;;;;;;4.80;4.40;;;18.70;80.20;;;19.22;51.10;95876.56;4988959;28;20561;-56
2022/01/02 07:56:04;;;;;;;5.50;4.60;;;19.20;77.40;;;19.68;49.91;95870.63;4988909;28;20481;-54
2022/01/02 07:58:32;;;;;;;4.60;4.20;;;19.60;75.40;;;20.06;48.85;95869.03;4990120;28;20447;-63
2022/01/02 08:01:01;;;;;;;5.93;4.73;;;19.80;73.40;;;20.27;48.47;95874.75;4989930;28;21006;-56
2022/01/02 08:03:29;;;;;;;9.40;4.27;;;20.00;72.30;;;20.10;48.53;95869.50;4990462;28;20459;-64
2022/01/02 08:05:56;;;;;;;5.27;4.77;;;19.90;70.70;;;19.98;48.47;95874.38;4989947;28;20467;-63
2022/01/02 08:08:23;;;;;;;8.53;5.37;;;19.90;69.50;;;20.10;48.08;95874.00;4989563;28;20454;-62
2022/01/02 08:10:50;;;;;;;4.77;4.47;;;19.90;69.60;;;20.32;47.87;95870.53;4989880;28;20483;-63
2022/01/02 08:13:18;;;;;;;8.33;4.13;;;20.00;69.80;;;20.56;47.12;95872.25;4987983;28;20541;-63
2022/01/02 08:15:48;;;;;;;5.70;4.30;;;20.20;67.70;;;20.61;46.77;95869.03;4991263;28;20513;-64
2022/01/02 08:18:16;;;;;;;4.70;3.83;;;20.20;66.90;;;20.38;47.03;95869.00;4987715;28;20463;-63
2022/01/02 08:20:45;;;;;;;6.73;5.03;;;20.20;66.90;;;20.10;47.52;95872.16;4988116;28;20490;-64
2022/01/02 08:23:13;;;;;;;5.27;4.47;;;20.00;66.70;;;19.73;47.86;95876.28;4989710;28;20561;-57
2022/01/02 08:25:40;;;;;;;6.23;4.73;;;19.60;67.50;;;19.29;48.14;95869.56;4989100;28;20493;-63
2022/01/02 08:28:07;;;;;;;4.37;3.93;;;19.30;67.50;;;19.05;48.71;95875.75;4985847;28;20518;-64
2022/01/02 08:30:34;;;;;;;4.20;3.90;;;18.90;67.70;;;18.89;48.81;95878.44;4985797;28;20478;-56
2022/01/02 08:33:02;;;;;;;4.53;4.23;;;18.60;68.60;;;18.70;48.66;95874.22;4987572;28;20517;-55
2022/01/02 08:35:30;;;;;;;4.03;3.73;;;18.50;69.40;;;18.58;49.33;95871.88;4990145;28;20486;-55
2022/01/02 08:37:58;;;;;;;5.03;4.63;;;18.30;69.30;;;18.55;49.31;95872.22;4983318;28;20462;-62
2022/01/02 08:40:25;;;;;;;6.47;5.13;;;18.30;69.60;;;18.62;48.96;95870.56;4987189;28;20512;-55
2022/01/02 08:42:55;;;;;;;6.63;5.93;;;18.30;70.00;;;18.69;48.52;95877.91;4990076;28;20466;-56
2022/01/02 08:45:23;;;;;;;4.73;4.30;;;18.30;69.30;;;18.60;48.73;95877.88;4988868;28;20470;-63
2022/01/02 08:47:50;;;;;;;4.87;4.47;;;18.30;68.60;;;18.45;48.31;95882.16;4986413;28;20465;-55
2022/01/02 08:50:17;;;;;;;4.30;3.90;;;18.20;68.70;;;18.26;49.13;95876.16;4988097;28;20478;-62
2022/01/02 08:52:46;;;;;;;4.20;4.00;;;18.00;68.50;;;18.18;48.53;95881.44;4988031;28;20446;-61
2022/01/02 08:55:14;;;;;;;4.57;4.17;;;17.90;68.80;;;18.11;48.88;95883.13;4987985;28;20859;-55
2022/01/02 08:57:41;;;;;;;6.73;4.47;;;17.80;68.70;;;18.00;49.02;95878.91;4983249;28;20469;-56
2022/01/02 09:00:10;;;;;;;7.03;4.90;;;17.80;69.30;;;17.84;49.73;95886.78;4987522;28;20493;-56
2022/01/02 09:02:38;;;;;;;5.53;4.50;;;17.70;70.00;;;17.66;49.13;95870.91;4987819;28;20459;-55
2022/01/02 09:05:06;;;;;;;5.20;4.60;;;17.50;68.60;;;17.44;50.08;95878.44;4984563;28;21002;-57
2022/01/02 09:07:34;;;;;;;4.17;3.83;;;17.30;70.40;;;17.24;50.02;95877.81;4984908;28;20462;-61
2022/01/02 09:10:02;;;;;;;4.50;4.13;;;17.10;70.20;;;17.02;50.54;95873.84;4984340;28;20490;-57
2022/01/02 09:12:30;;;;;;;4.90;4.50;;;16.90;70.50;;;16.81;51.27;95866.19;4983278;28;20471;-57
2022/01/02 09:14:57;;;;;;;3.97;3.67;;;16.70;72.10;;;16.63;51.21;95863.56;4985003;28;20830;-62
2022/01/02 09:17:25;;;;;;;4.23;3.87;;;16.50;72.30;;;16.46;51.58;95868.69;4984023;28;20464;-61
2022/01/02 09:19:52;;;;;;;4.57;4.10;;;16.40;72.10;;;16.34;51.95;95864.59;4986289;28;20466;-60
2022/01/02 09:22:20;;;;;;;4.20;3.80;;;16.30;72.80;;;16.39;51.77;95866.81;4982455;28;20463;-60
2022/01/02 09:24:47;;;;;;;3.70;3.50;;;16.20;73.10;;;16.62;51.58;95857.41;4982293;28;20479;-62
2022/01/02 09:27:16;;;;;;;3.70;3.50;;;16.30;73.30;;;16.95;50.70;95851.56;4985589;28;20451;-56
2022/01/02 09:29:43;;;;;;;5.40;3.97;;;16.60;73.10;;;17.30;50.84;95855.09;4980998;28;20993;-55
2022/01/02 09:32:11;;;;;;;4.27;3.87;;;16.90;72.90;;;17.59;49.95;95853.94;4982692;28;20462;-60
2022/01/02 09:34:38;;;;;;;3.97;3.73;;;17.10;71.30;;;17.66;49.42;95846.97;4984616;28;20462;-61
2022/01/02 09:37:05;;;;;;;4.17;3.73;;;17.30;70.50;;;17.67;49.24;95848.63;4985001;28;20450;-61
2022/01/02 09:39:33;;;;;;;4.30;3.43;;;17.40;70.10;;;18.04;49.00;95842.16;4986923;28;20849;-60
2022/01/02 09:42:00;;;;;;;7.40;3.47;;;17.70;70.40;;;18.69;48.11;95841.41;4985461;28;20493;-62
2022/01/02 09:44:29;;;;;;;3.90;3.63;;;18.20;69.70;;;19.47;47.55;95825.81;4988445;28;20454;-60
2022/01/02 09:46:57;;;;;;;3.30;3.00;;;18.90;68.90;;;20.27;46.21;95834.69;4984755;28;20919;-61
2022/01/02 09:49:24;;;;;;;3.70;3.50;;;19.60;67.40;;;20.98;45.16;95819.31;4979880;28;20442;-59
2022/01/02 09:51:51;;;;;;;5.27;2.70;;;20.30;64.70;;;21.69;43.99;95820.75;4984851;28;20462;-60
2022/01/02 09:54:19;;;;;;;3.30;2.70;;;21.00;63.20;;;22.34;42.90;95816.44;4980075;28;20455;-56
2022/01/02 09:56:46;;;;;;;5.60;3.03;;;21.60;60.40;;;22.96;41.64;95811.41;4988595;28;20475;-62
2022/01/02 09:59:13;;;;;;;3.27;2.83;;;22.20;59.00;;;23.33;39.98;95809.44;4982839;28;20454;-62
2022/01/02 10:01:43;;;;;;;2.40;2.30;;;22.60;56.70;;;23.52;39.32;95807.94;4984711;28;20497;-61
2022/01/02 10:04:11;;;;;;;2.80;2.60;;;22.90;55.90;;;23.41;39.87;95809.31;4985153;28;20435;-56
2022/01/02 10:06:41;;;;;;;3.43;2.80;;;22.90;54.50;;;23.27;39.24;95801.16;4984027;28;20494;-56
2022/01/02 10:09:14;;;;;;;2.73;2.63;;;22.90;54.20;;;23.50;38.69;95801.91;4976783;28;20461;-58
2022/01/02 10:11:42;;;;;;;2.53;2.43;;;23.10;53.90;;;23.99;38.59;95804.44;4984461;28;20649;-57
2022/01/02 10:14:10;;;;;;;5.33;3.60;;;23.50;53.80;;;24.43;34.63;95785.34;4982681;28;20450;-63
2022/01/02 10:16:39;;;;;;;3.03;2.93;;;23.80;48.10;;;24.68;36.41;95791.84;4982803;28;20486;-64
2022/01/02 10:19:21;;;;;;;3.40;3.20;;;24.10;50.60;;;25.03;36.29;95786.22;4983863;28;20450;-64
2022/01/02 10:21:56;;;;;;;4.97;3.30;;;24.30;50.10;;;25.25;36.33;95796.78;4986118;28;20517;-55
2022/01/02 10:24:27;;;;;;;3.20;3.00;;;24.60;50.30;;;25.26;36.35;95786.84;4981986;28;20446;-64
2022/01/02 10:27:09;;;;;;;2.40;2.20;;;24.70;49.60;;;25.17;34.91;95781.66;4983335;28;20473;-56
2022/01/02 10:29:44;;;;;;;3.10;2.87;;;24.80;48.30;;;25.18;36.10;95774.44;4985054;28;20447;-56